createdAt,value
2022-08-25T00:01:52.237Z,2.70
2022-08-25T00:04:22.689Z,2.85
2022-08-25T00:06:51.070Z,2.10
2022-08-25T00:09:21.518Z,2.45
2022-08-25T00:11:51.010Z,2.40
2022-08-25T00:14:21.948Z,2.50
2022-08-25T00:16:50.480Z,2.63
2022-08-25T00:19:23.025Z,2.38
2022-08-25T00:21:51.604Z,2.55
2022-08-25T00:24:21.633Z,2.42
2022-08-25T00:26:52.378Z,2.55
2022-08-25T00:29:21.067Z,2.60
2022-08-25T00:31:49.181Z,2.40
2022-08-25T00:34:20.101Z,2.58
2022-08-25T00:36:51.812Z,2.60
2022-08-25T00:39:22.034Z,2.30
2022-08-25T00:41:52.355Z,2.22
2022-08-25T00:44:21.036Z,2.67
2022-08-25T00:46:52.094Z,2.47
2022-08-25T00:49:28.788Z,2.65
2022-08-25T00:52:02.905Z,3.03
2022-08-25T00:54:34.899Z,2.40
2022-08-25T00:57:05.388Z,2.58
2022-08-25T00:59:33.981Z,2.45
2022-08-25T01:02:02.543Z,2.65
2022-08-25T01:04:30.829Z,2.58
2022-08-25T01:07:01.777Z,2.65
2022-08-25T01:09:32.642Z,2.63
2022-08-25T01:12:00.799Z,2.45
2022-08-25T01:14:31.614Z,2.53
2022-08-25T01:17:00.073Z,2.63
2022-08-25T01:19:29.790Z,2.50
2022-08-25T01:21:59.790Z,2.47
2022-08-25T01:24:39.908Z,2.88
2022-08-25T01:27:09.313Z,2.42
2022-08-25T01:29:37.956Z,2.63
2022-08-25T01:32:08.347Z,2.70
2022-08-25T01:34:38.477Z,2.50
2022-08-25T01:37:08.488Z,2.50
2022-08-25T01:39:41.856Z,2.78
2022-08-25T01:42:20.533Z,2.88
2022-08-25T01:44:49.098Z,2.50
2022-08-25T01:47:17.358Z,2.40
2022-08-25T01:49:53.243Z,2.65
2022-08-25T01:52:46.666Z,2.63
2022-08-25T01:55:20.226Z,2.40
2022-08-25T01:57:48.351Z,2.65
2022-08-25T02:00:18.700Z,2.72
2022-08-25T02:02:47.084Z,2.45
2022-08-25T02:05:23.562Z,2.45
2022-08-25T02:07:53.825Z,2.58
2022-08-25T02:10:22.484Z,2.70
2022-08-25T02:12:51.807Z,2.58
2022-08-25T02:15:22.688Z,2.60
2022-08-25T02:17:50.814Z,2.42
2022-08-25T02:20:19.175Z,2.60
2022-08-25T02:22:53.124Z,2.67
2022-08-25T02:25:26.428Z,2.55
2022-08-25T02:27:54.646Z,2.83
2022-08-25T02:30:22.739Z,2.63
2022-08-25T02:32:51.217Z,2.80
2022-08-25T02:35:19.998Z,2.47
2022-08-25T02:37:48.008Z,2.30
2022-08-25T02:40:17.277Z,2.70
2022-08-25T02:42:46.736Z,2.90
2022-08-25T02:45:15.047Z,2.80
2022-08-25T02:47:43.679Z,2.53
2022-08-25T02:50:12.527Z,2.42
2022-08-25T02:52:41.326Z,2.60
2022-08-25T02:55:14.368Z,2.40
2022-08-25T02:57:43.102Z,2.50
2022-08-25T03:00:15.477Z,2.80
2022-08-25T03:02:44.074Z,2.72
2022-08-25T03:05:14.259Z,2.65
2022-08-25T03:07:42.497Z,2.80
2022-08-25T03:10:13.854Z,2.60
2022-08-25T03:12:42.672Z,3.13
2022-08-25T03:15:16.888Z,3.00
2022-08-25T03:17:45.910Z,2.97
2022-08-25T03:20:15.453Z,2.70
2022-08-25T03:22:43.671Z,2.80
2022-08-25T03:25:29.660Z,2.60
2022-08-25T03:27:58.679Z,2.80
2022-08-25T03:30:29.540Z,2.65
2022-08-25T03:32:57.677Z,2.95
2022-08-25T03:35:25.771Z,2.60
2022-08-25T03:37:57.159Z,2.55
2022-08-25T03:40:25.567Z,2.75
2022-08-25T03:42:55.072Z,3.20
2022-08-25T03:45:23.938Z,2.65
2022-08-25T03:47:54.213Z,2.53
2022-08-25T03:50:26.251Z,2.80
2022-08-25T03:52:56.605Z,2.90
2022-08-25T03:55:26.502Z,2.83
2022-08-25T03:57:56.104Z,2.72
2022-08-25T04:00:24.892Z,2.85
2022-08-25T04:02:54.617Z,2.70
2022-08-25T04:05:22.793Z,2.63
2022-08-25T04:07:54.970Z,2.70
2022-08-25T04:10:23.396Z,2.42
2022-08-25T04:12:56.419Z,2.95
2022-08-25T04:15:28.533Z,2.70
2022-08-25T04:18:00.039Z,2.78
2022-08-25T04:20:28.226Z,3.05
2022-08-25T04:22:56.698Z,2.58
2022-08-25T04:25:24.779Z,2.67
2022-08-25T04:27:52.716Z,2.53
2022-08-25T04:30:21.316Z,2.50
2022-08-25T04:32:49.679Z,2.40
2022-08-25T04:35:19.394Z,2.70
2022-08-25T04:37:48.965Z,2.50
2022-08-25T04:40:17.086Z,2.55
2022-08-25T04:43:05.068Z,2.80
2022-08-25T04:45:33.296Z,3.00
2022-08-25T04:48:01.675Z,2.90
2022-08-25T04:50:31.158Z,2.83
2022-08-25T04:52:59.173Z,2.80
2022-08-25T04:55:27.300Z,2.63
2022-08-25T04:57:55.733Z,2.70
2022-08-25T05:00:24.000Z,2.78
2022-08-25T05:02:52.061Z,2.38
2022-08-25T05:05:19.994Z,2.60
2022-08-25T05:07:49.571Z,2.25
2022-08-25T05:10:17.780Z,2.30
2022-08-25T05:12:45.756Z,2.70
2022-08-25T05:15:27.870Z,2.53
2022-08-25T05:17:56.419Z,2.30
2022-08-25T05:20:25.143Z,2.47
2022-08-25T05:22:54.610Z,2.70
2022-08-25T05:25:22.803Z,3.03
2022-08-25T05:27:51.511Z,2.80
2022-08-25T05:30:19.811Z,2.88
2022-08-25T05:32:47.881Z,2.40
2022-08-25T05:35:16.608Z,2.55
2022-08-25T05:37:44.780Z,2.30
2022-08-25T05:40:17.755Z,2.22
2022-08-25T05:42:48.319Z,2.10
2022-08-25T05:45:20.647Z,2.03
2022-08-25T05:47:49.238Z,1.75
2022-08-25T05:50:18.110Z,1.65
2022-08-25T05:52:47.094Z,1.50
2022-08-25T05:55:16.843Z,1.73
2022-08-25T05:57:44.982Z,1.70
2022-08-25T06:00:16.066Z,1.70
2022-08-25T06:02:46.444Z,1.50
2022-08-25T06:05:17.640Z,1.42
2022-08-25T06:07:46.506Z,1.45
2022-08-25T06:10:16.790Z,1.52
2022-08-25T06:12:46.925Z,1.38
2022-08-25T06:15:16.602Z,1.45
2022-08-25T06:17:44.703Z,1.40
2022-08-25T06:20:17.073Z,1.60
2022-08-25T06:22:46.383Z,1.42
2022-08-25T06:25:18.922Z,1.48
2022-08-25T06:27:47.502Z,1.42
2022-08-25T06:30:24.410Z,1.67
2022-08-25T06:32:57.204Z,1.30
2022-08-25T06:35:26.108Z,1.50
2022-08-25T06:37:55.716Z,1.63
2022-08-25T06:40:26.340Z,1.73
2022-08-25T06:42:54.499Z,1.50
2022-08-25T06:45:22.575Z,1.55
2022-08-25T06:47:51.035Z,1.50
2022-08-25T06:50:19.306Z,1.30
2022-08-25T06:52:47.616Z,1.50
2022-08-25T06:55:15.998Z,1.48
2022-08-25T06:57:45.734Z,1.40
2022-08-25T07:00:14.368Z,1.40
2022-08-25T07:02:42.447Z,1.40
2022-08-25T07:05:16.999Z,1.50
2022-08-25T07:07:54.965Z,1.50
2022-08-25T07:10:23.023Z,1.30
2022-08-25T07:12:53.059Z,1.50
2022-08-25T07:15:21.412Z,1.23
2022-08-25T07:17:50.061Z,1.40
2022-08-25T07:20:19.531Z,1.50
2022-08-25T07:22:48.102Z,1.42
2022-08-25T07:25:17.894Z,1.20
2022-08-25T07:27:46.686Z,1.38
2022-08-25T07:30:17.696Z,1.58
2022-08-25T07:32:45.933Z,1.50
2022-08-25T07:35:16.049Z,1.35
2022-08-25T07:37:52.123Z,1.30
2022-08-25T07:40:24.999Z,1.20
2022-08-25T07:42:55.598Z,1.77
2022-08-25T07:45:30.762Z,1.15
2022-08-25T07:48:00.706Z,1.48
2022-08-25T07:50:31.341Z,1.13
2022-08-25T07:53:00.319Z,1.40
2022-08-25T07:55:30.481Z,1.25
2022-08-25T07:57:59.817Z,1.38
2022-08-25T08:00:30.395Z,1.00
2022-08-25T08:02:59.035Z,1.23
2022-08-25T08:05:28.425Z,1.05
2022-08-25T08:07:57.975Z,1.00
2022-08-25T08:10:48.112Z,1.20
2022-08-25T08:13:18.444Z,1.02
2022-08-25T08:15:48.706Z,0.98
2022-08-25T08:18:18.480Z,1.10
2022-08-25T08:20:47.365Z,1.00
2022-08-25T08:23:18.350Z,1.20
2022-08-25T08:25:46.698Z,1.15
2022-08-25T08:28:14.853Z,1.02
2022-08-25T08:31:02.143Z,1.08
2022-08-25T08:33:31.783Z,1.20
2022-08-25T08:36:11.920Z,1.10
2022-08-25T08:38:42.499Z,1.05
2022-08-25T08:42:00.648Z,1.10
2022-08-25T08:44:34.507Z,1.10
2022-08-25T08:47:09.060Z,1.45
2022-08-25T08:49:48.579Z,0.98
2022-08-25T08:52:20.557Z,0.90
2022-08-25T08:55:05.563Z,1.00
2022-08-25T08:57:42.443Z,1.00
2022-08-25T09:00:13.101Z,1.15
2022-08-25T09:02:51.418Z,1.00
2022-08-25T09:05:25.891Z,0.90
2022-08-25T09:07:57.285Z,1.00
2022-08-25T09:10:32.084Z,0.90
2022-08-25T09:13:12.263Z,1.00
2022-08-25T09:16:10.247Z,1.00
2022-08-25T09:18:57.644Z,1.13
2022-08-25T09:21:34.747Z,1.00
2022-08-25T09:24:20.185Z,0.98
2022-08-25T09:27:02.119Z,1.05
2022-08-25T09:29:54.635Z,1.20
2022-08-25T09:32:24.028Z,1.10
2022-08-25T09:34:55.595Z,0.70
2022-08-25T09:37:27.226Z,0.90
2022-08-25T09:39:59.118Z,0.80
2022-08-25T09:42:49.878Z,1.08
2022-08-25T09:45:31.194Z,1.05
2022-08-25T09:47:59.445Z,0.75
2022-08-25T09:50:35.091Z,0.60
2022-08-25T09:53:18.547Z,0.80
2022-08-25T09:55:59.983Z,0.80
2022-08-25T09:58:28.914Z,0.70
2022-08-25T10:01:14.219Z,0.52
2022-08-25T10:03:56.956Z,0.70
2022-08-25T10:06:26.504Z,0.60
2022-08-25T10:08:59.658Z,0.50
2022-08-25T10:11:40.104Z,0.68
2022-08-25T10:14:18.597Z,0.50
2022-08-25T10:16:47.887Z,0.50
2022-08-25T10:19:26.075Z,0.50
2022-08-25T10:22:08.189Z,0.60
2022-08-25T10:24:45.256Z,0.40
2022-08-25T10:27:24.116Z,0.57
2022-08-25T10:30:12.746Z,0.47
2022-08-25T10:33:13.089Z,0.40
2022-08-25T10:35:53.951Z,0.40
2022-08-25T10:38:36.260Z,0.57
2022-08-25T10:41:22.506Z,0.77
2022-08-25T10:43:58.659Z,0.52
2022-08-25T10:46:36.713Z,0.50
2022-08-25T10:49:08.522Z,0.60
2022-08-25T10:51:51.479Z,0.60
2022-08-25T10:54:33.811Z,0.22
2022-08-25T10:57:15.215Z,0.50
2022-08-25T10:59:56.426Z,0.60
2022-08-25T11:03:08.814Z,0.50
2022-08-25T11:05:42.221Z,0.45
2022-08-25T11:08:15.958Z,0.50
2022-08-25T11:10:53.000Z,0.52
2022-08-25T11:13:30.666Z,0.60
2022-08-25T11:16:17.177Z,0.65
2022-08-25T11:18:56.817Z,0.50
2022-08-25T11:21:32.807Z,0.60
2022-08-25T11:24:11.807Z,0.50
2022-08-25T11:26:46.240Z,0.55
2022-08-25T11:29:19.694Z,0.60
2022-08-25T11:31:54.179Z,0.60
2022-08-25T11:34:23.739Z,0.60
2022-08-25T11:36:57.564Z,0.60
2022-08-25T11:39:47.649Z,0.70
2022-08-25T11:42:30.040Z,0.60
2022-08-25T11:45:09.983Z,0.70
2022-08-25T11:48:05.508Z,0.68
2022-08-25T11:50:37.565Z,0.70
2022-08-25T11:53:26.617Z,0.60
2022-08-25T11:55:58.906Z,0.73
2022-08-25T11:58:51.976Z,0.70
2022-08-25T12:02:10.972Z,0.70
2022-08-25T12:04:44.699Z,0.70
2022-08-25T12:07:28.057Z,0.63
2022-08-25T12:10:24.217Z,0.80
2022-08-25T12:13:24.449Z,0.95
2022-08-25T12:16:03.582Z,0.80
2022-08-25T12:18:45.539Z,0.90
2022-08-25T12:21:29.365Z,0.80
2022-08-25T12:24:14.051Z,1.00
2022-08-25T12:26:50.223Z,0.85
2022-08-25T12:29:28.800Z,0.80
2022-08-25T12:32:18.908Z,1.10
2022-08-25T12:35:10.632Z,0.90
2022-08-25T12:38:06.629Z,0.90
2022-08-25T12:40:39.263Z,1.20
2022-08-25T12:43:26.703Z,0.95
2022-08-25T12:46:15.938Z,1.15
2022-08-25T12:49:00.449Z,0.90
2022-08-25T12:51:41.005Z,0.90
2022-08-25T12:54:23.511Z,0.90
2022-08-25T12:56:56.601Z,1.00
2022-08-25T12:59:33.180Z,1.15
2022-08-25T13:02:49.673Z,0.90
2022-08-25T13:05:57.268Z,0.90
2022-08-25T13:08:46.792Z,1.00
2022-08-25T13:11:20.496Z,1.25
2022-08-25T13:13:55.870Z,1.30
2022-08-25T13:16:29.727Z,0.95
2022-08-25T13:19:01.552Z,0.93
2022-08-25T13:21:32.795Z,1.10
2022-08-25T13:24:06.648Z,1.00
2022-08-25T13:26:48.609Z,0.90
2022-08-25T13:29:21.385Z,1.02
2022-08-25T13:32:12.689Z,1.00
2022-08-25T13:34:43.186Z,1.08
2022-08-25T13:37:36.686Z,0.93
2022-08-25T13:40:17.818Z,1.08
2022-08-25T13:42:55.601Z,0.80
2022-08-25T13:45:26.968Z,1.00
2022-08-25T13:47:58.533Z,0.90
2022-08-25T13:50:36.743Z,1.10
2022-08-25T13:53:07.844Z,0.70
2022-08-25T13:55:51.700Z,1.00
2022-08-25T13:58:39.146Z,0.95
2022-08-25T14:01:48.784Z,1.00
2022-08-25T14:04:37.267Z,0.85
2022-08-25T14:07:19.481Z,0.80
2022-08-25T14:09:52.341Z,0.80
2022-08-25T14:12:35.151Z,0.88
2022-08-25T14:15:08.569Z,0.70
2022-08-25T14:17:40.076Z,0.60
2022-08-25T14:20:18.776Z,0.70
2022-08-25T14:22:47.048Z,0.80
2022-08-25T14:25:16.010Z,0.70
2022-08-25T14:30:37.722Z,0.70
2022-08-25T14:33:09.048Z,0.70
2022-08-25T14:35:38.136Z,0.60
2022-08-25T14:38:10.846Z,0.70
2022-08-25T14:40:39.832Z,0.75
2022-08-25T14:43:09.782Z,0.50
2022-08-25T14:45:46.786Z,0.50
2022-08-25T14:48:26.014Z,0.70
2022-08-25T14:50:55.332Z,0.60
2022-08-25T14:53:23.362Z,0.50
2022-08-25T14:55:53.956Z,0.70
2022-08-25T14:58:27.461Z,0.80
2022-08-25T15:00:57.528Z,0.70
2022-08-25T15:03:31.816Z,0.60
2022-08-25T15:06:01.043Z,0.57
2022-08-25T15:08:47.971Z,0.63
2022-08-25T15:11:18.348Z,0.60
2022-08-25T15:13:49.787Z,0.50
2022-08-25T15:16:24.980Z,0.65
2022-08-25T15:19:03.206Z,0.70
2022-08-25T15:21:35.580Z,0.70
2022-08-25T15:24:04.218Z,0.75
2022-08-25T15:26:35.416Z,0.60
2022-08-25T15:29:04.845Z,0.57
2022-08-25T15:31:34.179Z,0.80
2022-08-25T15:34:02.272Z,0.60
2022-08-25T15:36:30.304Z,0.93
2022-08-25T15:38:59.021Z,0.75
2022-08-25T15:41:27.876Z,1.00
2022-08-25T15:43:56.674Z,0.90
2022-08-25T15:46:27.444Z,1.08
2022-08-25T15:48:57.112Z,1.02
2022-08-25T15:51:25.596Z,1.00
2022-08-25T15:53:53.948Z,1.23
2022-08-25T15:56:26.724Z,1.10
2022-08-25T15:58:56.770Z,1.20
2022-08-25T16:01:27.663Z,1.23
2022-08-25T16:04:00.583Z,1.30
2022-08-25T16:06:28.593Z,1.50
2022-08-25T16:08:56.996Z,1.50
2022-08-25T16:11:28.004Z,1.73
2022-08-25T16:13:58.954Z,1.50
2022-08-25T16:16:29.454Z,1.98
2022-08-25T16:18:59.518Z,1.95
2022-08-25T16:21:30.169Z,2.10
2022-08-25T16:24:05.497Z,2.10
2022-08-25T16:26:36.524Z,2.10
2022-08-25T16:29:06.471Z,2.30
2022-08-25T16:31:37.713Z,2.28
2022-08-25T16:34:07.408Z,2.78
2022-08-25T16:36:35.480Z,2.60
2022-08-25T16:39:03.426Z,2.15
2022-08-25T16:41:41.390Z,1.70
2022-08-25T16:44:11.163Z,1.83
2022-08-25T16:46:40.690Z,2.78
2022-08-25T16:49:11.210Z,1.80
2022-08-25T16:51:40.444Z,2.45
2022-08-25T16:54:36.423Z,2.10
2022-08-25T16:57:04.408Z,1.60
2022-08-25T16:59:32.475Z,1.48
2022-08-25T17:02:00.738Z,1.38
2022-08-25T17:04:34.716Z,1.38
2022-08-25T17:07:02.659Z,1.40
2022-08-25T17:09:30.764Z,1.40
2022-08-25T17:11:59.049Z,1.60
2022-08-25T17:14:27.023Z,2.85
2022-08-25T17:16:55.569Z,2.72
2022-08-25T17:19:25.105Z,1.65
2022-08-25T17:21:55.176Z,2.20
2022-08-25T17:24:29.623Z,1.60
2022-08-25T17:27:00.166Z,1.85
2022-08-25T17:29:29.864Z,1.63
2022-08-25T17:31:58.612Z,1.25
2022-08-25T17:34:28.596Z,1.67
2022-08-25T17:36:59.461Z,1.42
2022-08-25T17:39:28.380Z,2.08
2022-08-25T17:41:56.449Z,2.53
2022-08-25T17:44:25.420Z,1.58
2022-08-25T17:46:53.679Z,1.05
2022-08-25T17:49:22.588Z,1.17
2022-08-25T17:51:51.722Z,1.00
2022-08-25T17:54:21.807Z,0.90
2022-08-25T17:56:49.750Z,0.88
2022-08-25T17:59:18.912Z,0.77
2022-08-25T18:01:50.729Z,0.85
2022-08-25T18:04:23.796Z,0.80
2022-08-25T18:06:55.711Z,0.75
2022-08-25T18:09:25.137Z,0.93
2022-08-25T18:11:53.760Z,0.90
2022-08-25T18:14:25.224Z,0.90
2022-08-25T18:16:57.086Z,0.80
2022-08-25T18:19:25.102Z,0.80
2022-08-25T18:21:53.388Z,1.00
2022-08-25T18:24:26.167Z,0.90
2022-08-25T18:26:57.287Z,0.77
2022-08-25T18:29:26.233Z,0.85
2022-08-25T18:31:59.738Z,1.00
2022-08-25T18:34:30.310Z,0.90
2022-08-25T18:37:19.231Z,1.20
2022-08-25T18:40:04.912Z,1.10
2022-08-25T18:42:36.464Z,0.93
2022-08-25T18:45:05.940Z,1.20
2022-08-25T18:47:34.426Z,1.10
2022-08-25T18:50:05.068Z,1.10
2022-08-25T18:52:35.408Z,0.93
2022-08-25T18:55:03.845Z,1.00
2022-08-25T18:57:32.903Z,1.30
2022-08-25T19:00:02.962Z,1.52
2022-08-25T19:02:31.728Z,1.50
2022-08-25T19:05:04.768Z,1.40
2022-08-25T19:07:35.808Z,1.50
2022-08-25T19:10:09.326Z,1.30
2022-08-25T19:12:37.569Z,1.40
2022-08-25T19:15:07.767Z,1.23
2022-08-25T19:17:37.307Z,1.83
2022-08-25T19:20:11.027Z,1.50
2022-08-25T19:22:41.979Z,1.33
2022-08-25T19:25:11.243Z,1.50
2022-08-25T19:27:40.526Z,1.50
2022-08-25T19:30:14.029Z,1.30
2022-08-25T19:32:44.906Z,1.33
2022-08-25T19:35:19.841Z,1.35
2022-08-25T19:37:48.480Z,1.48
2022-08-25T19:40:20.035Z,1.80
2022-08-25T19:42:54.692Z,1.63
2022-08-25T19:45:25.053Z,2.35
2022-08-25T19:47:54.266Z,1.80
2022-08-25T19:50:23.270Z,2.08
2022-08-25T19:52:51.672Z,1.95
2022-08-25T19:55:19.854Z,2.13
2022-08-25T19:57:48.306Z,2.55
2022-08-25T20:00:22.098Z,2.33
2022-08-25T20:02:52.135Z,2.10
2022-08-25T20:05:23.607Z,2.47
2022-08-25T20:07:55.265Z,2.55
2022-08-25T20:10:24.737Z,2.45
2022-08-25T20:12:55.681Z,2.50
2022-08-25T20:15:24.044Z,2.30
2022-08-25T20:17:56.616Z,2.50
2022-08-25T20:20:25.755Z,2.42
2022-08-25T20:23:14.860Z,2.45
2022-08-25T20:25:47.433Z,2.20
2022-08-25T20:28:18.666Z,1.98
2022-08-25T20:30:47.473Z,2.13
2022-08-25T20:33:22.857Z,2.08
2022-08-25T20:35:53.372Z,1.77
2022-08-25T20:38:21.449Z,1.90
2022-08-25T20:40:49.578Z,1.90
2022-08-25T20:43:17.945Z,2.05
2022-08-25T20:45:49.087Z,1.92
2022-08-25T20:48:19.508Z,2.20
2022-08-25T20:50:54.320Z,2.13
2022-08-25T20:53:27.173Z,1.80
2022-08-25T20:55:55.284Z,1.90
2022-08-25T20:58:23.294Z,2.00
2022-08-25T21:00:51.740Z,2.15
2022-08-25T21:03:22.116Z,2.33
2022-08-25T21:05:54.031Z,2.00
2022-08-25T21:08:23.825Z,2.70
2022-08-25T21:10:53.767Z,2.13
2022-08-25T21:13:25.038Z,1.98
2022-08-25T21:15:55.331Z,2.17
2022-08-25T21:18:27.600Z,2.10
2022-08-25T21:21:05.982Z,2.28
2022-08-25T21:23:34.996Z,2.28
2022-08-25T21:26:03.058Z,2.40
2022-08-25T21:28:32.430Z,2.20
2022-08-25T21:31:00.715Z,2.10
2022-08-25T21:33:30.131Z,2.30
2022-08-25T21:35:59.168Z,2.38
2022-08-25T21:38:29.147Z,2.20
2022-08-25T21:40:57.975Z,2.20
2022-08-25T21:43:26.061Z,2.20
2022-08-25T21:45:54.264Z,2.88
2022-08-25T21:48:24.234Z,2.20
2022-08-25T21:51:04.909Z,2.35
2022-08-25T21:53:35.593Z,2.70
2022-08-25T21:56:05.379Z,2.53
2022-08-25T21:58:34.637Z,2.72
2022-08-25T22:01:10.888Z,2.70
2022-08-25T22:03:41.182Z,2.47
2022-08-25T22:06:12.381Z,2.58
2022-08-25T22:08:41.729Z,2.83
2022-08-25T22:11:11.489Z,2.58
2022-08-25T22:13:41.192Z,2.72
2022-08-25T22:16:11.886Z,2.90
2022-08-25T22:18:42.208Z,3.20
2022-08-25T22:21:11.522Z,2.88
2022-08-25T22:23:44.563Z,2.60
2022-08-25T22:26:15.470Z,3.08
2022-08-25T22:28:43.640Z,3.00
2022-08-25T22:31:14.916Z,3.30
2022-08-25T22:33:50.028Z,3.33
2022-08-25T22:36:25.048Z,3.10
2022-08-25T22:38:55.851Z,3.03
2022-08-25T22:41:25.957Z,3.10
2022-08-25T22:43:56.970Z,3.20
2022-08-25T22:46:29.050Z,3.08
2022-08-25T22:48:58.026Z,2.97
2022-08-25T22:51:33.994Z,3.00
2022-08-25T22:54:02.461Z,2.97
2022-08-25T22:56:34.800Z,3.35
2022-08-25T22:59:12.632Z,2.90
2022-08-25T23:01:41.726Z,3.28
2022-08-25T23:04:10.815Z,3.00
2022-08-25T23:06:40.769Z,3.40
2022-08-25T23:09:11.440Z,3.15
2022-08-25T23:11:39.991Z,2.80
2022-08-25T23:14:10.473Z,3.53
2022-08-25T23:16:38.795Z,2.90
2022-08-25T23:19:06.968Z,2.85
2022-08-25T23:21:53.457Z,3.38
2022-08-25T23:24:29.449Z,3.00
2022-08-25T23:26:58.486Z,3.38
2022-08-25T23:29:27.836Z,3.10
2022-08-25T23:31:56.715Z,3.30
2022-08-25T23:34:25.454Z,3.20
2022-08-25T23:36:53.682Z,3.45
2022-08-25T23:39:22.394Z,3.22
2022-08-25T23:41:53.168Z,3.50
2022-08-25T23:44:23.453Z,3.53
2022-08-25T23:46:54.079Z,3.10
2022-08-25T23:49:25.110Z,3.22
2022-08-25T23:51:56.143Z,3.40
2022-08-25T23:54:30.936Z,3.38
2022-08-25T23:57:01.642Z,3.30
2022-08-25T23:59:29.768Z,3.35
